Arlon-Sterpenich ULM Airfield

EBAR · Luxembourg, Wallonia, 比利时

罗盘
风向 的 风向 的 风向 到 风向 160° Arlon-Sterpenich ULM Airfield 9/27
风: 10 kt, 3 beaufort

3 kt

10 kt
改变
0 ft 1.000 2.000 3.000 4.000 5.000
Cloud Cloud Cloud Cloud
SCT 1.500
Cloud Cloud Cloud Cloud Cloud Cloud
BKN 2.000
METAR ELLX 211120Z 16010KT 130V190 9999 -SHRA SCT015 BKN020TCU 20/17 Q1012 TEMPO SHRA

METAR Arlon-Sterpenich ULM Airfield - EBAR

Arlon-Sterpenich ULM Airfield是,比利时中的小机场。 该机场位于纬度49,66200和经度5,88619。 该机场有一条跑道: 9/27. 本场的ICAO机场代码为EBAR。 机场在Bruxelles FIR中。

该航空气象观测是针对卢森堡-芬德尔国际机场在2024年6月21日 13:20, 当地时间进行的。

机场观察

风向为160°,速度为10 kt。 风向在130°和190°之间变化。

可见度为10 km 或者更多。

有疏云,零星散落的云朵在1.500 ft的高度 和 碎云 高耸的积云在2.000 ft的高度。 破损或更高的上限为2.000 ft。

当前天气为光 阵雨 雨。 温度和风寒是20 °C。 露点为17 °C,相对湿度为83%。 海平面上的气压为1012 hPa (QNH)。

发展趋势

  • 暂时的

    可变方向的风很小或没有。

白天

今天,太阳从05:28升起,在21:47降落。 这适用于Arlon-Sterpenich ULM Airfield,世界夏令时可能有所不同。 当地时间与世界标准时间之间的时差为+2 小时。 夏令时目前正在进行中。

公司介绍

我们没有关于这个机场的公司信息。

体会

到Vliegles.nl去找飞行课程,跳伞和其他飞行体验。 浏览页面,了解Arlon-Sterpenich ULM Airfield附近所有可用的活动。 你也可以使用搜索功能来寻找你所在地附近的特定飞行课程、跳伞或其他飞行体验。

跑道

Id 标题 侧风 逆风 侧风 %
9/27 086°-266° 10 kt 3 kt 96 %

逆风成分最大的方向会被突出显示,并用于横风计算。 这并不一定意味着这个方向在使用。

乌云

1.500 ft SCT 疏云,零星散落的云朵
2.000 ft BKN 碎云 高耸的积云

温度 & 天气

天气 光 阵雨 雨
温度 20 °C
露点 17 °C
相对湿度 83%
Kp-index 0 (0-9)

白天

日出
05:27
中午
13:37
日落
21:46 (7:48)

小工具

你想在你的网站上有一个关于Arlon-Sterpenich ULM Airfield的当前航空天气(METAR)的小部件吗?

显示HTML代码
报告变更